createdAt,value
2018-11-02T00:01:51.199Z,75.00
2018-11-02T00:04:23.678Z,74.60
2018-11-02T00:06:54.979Z,74.30
2018-11-02T00:09:27.219Z,74.40
2018-11-02T00:11:59.119Z,74.70
2018-11-02T00:14:31.419Z,74.80
2018-11-02T00:17:03.726Z,74.80
2018-11-02T00:19:35.859Z,74.90
2018-11-02T00:22:08.362Z,75.10
2018-11-02T00:24:39.660Z,74.80
2018-11-02T00:27:11.518Z,75.70
2018-11-02T00:29:42.859Z,75.00
2018-11-02T00:32:15.079Z,75.20
2018-11-02T00:34:46.499Z,75.00
2018-11-02T00:37:19.299Z,74.90
2018-11-02T00:39:51.279Z,74.90
2018-11-02T00:42:23.040Z,75.00
2018-11-02T00:44:54.120Z,75.10
2018-11-02T00:47:25.439Z,75.20
2018-11-02T00:49:57.259Z,75.50
2018-11-02T00:52:29.160Z,74.80
2018-11-02T00:55:00.759Z,74.30
2018-11-02T00:57:32.919Z,74.30
2018-11-02T01:00:05.120Z,73.90
2018-11-02T01:02:37.740Z,74.10
2018-11-02T01:05:09.939Z,74.10
2018-11-02T01:07:41.679Z,73.90
2018-11-02T01:10:13.899Z,74.10
2018-11-02T01:12:46.239Z,74.40
2018-11-02T01:15:19.378Z,74.60
2018-11-02T01:17:51.480Z,74.90
2018-11-02T01:20:23.359Z,75.10
2018-11-02T01:22:55.452Z,75.20
2018-11-02T01:25:27.459Z,75.40
2018-11-02T01:27:59.999Z,75.60
2018-11-02T01:30:31.820Z,75.10
2018-11-02T01:33:03.399Z,75.10
2018-11-02T01:35:35.720Z,74.50
2018-11-02T01:38:08.259Z,75.30
2018-11-02T01:40:39.659Z,75.50
2018-11-02T01:43:10.919Z,75.80
2018-11-02T01:45:43.039Z,75.70
2018-11-02T01:48:15.259Z,75.60
2018-11-02T01:50:46.818Z,75.70
2018-11-02T01:53:18.879Z,75.70
2018-11-02T01:55:52.040Z,75.70
2018-11-02T01:58:24.164Z,76.10
2018-11-02T02:00:56.759Z,76.10
2018-11-02T02:03:28.861Z,76.00
2018-11-02T02:06:00.779Z,76.20
2018-11-02T02:08:32.806Z,76.50
2018-11-02T02:11:04.487Z,76.40
2018-11-02T02:13:36.328Z,76.50
2018-11-02T02:16:07.679Z,76.80
2018-11-02T02:18:39.799Z,77.00
2018-11-02T02:21:11.779Z,77.10
2018-11-02T02:23:43.761Z,77.50
2018-11-02T02:26:16.078Z,77.90
2018-11-02T02:28:48.240Z,78.20
2018-11-02T02:31:20.361Z,78.50
2018-11-02T02:33:51.820Z,78.60
2018-11-02T02:36:24.420Z,78.90
2018-11-02T02:38:55.901Z,78.80
2018-11-02T02:41:27.679Z,78.60
2018-11-02T02:43:59.499Z,78.80
2018-11-02T02:46:31.724Z,78.70
2018-11-02T02:49:03.019Z,78.80
2018-11-02T02:51:33.498Z,78.60
2018-11-02T02:54:05.961Z,78.30
2018-11-02T02:56:37.680Z,78.30
2018-11-02T02:59:09.080Z,77.90
2018-11-02T03:01:41.139Z,77.70
2018-11-02T03:04:13.258Z,77.20
2018-11-02T03:06:45.179Z,77.20
2018-11-02T03:09:16.922Z,76.90
2018-11-02T03:11:49.102Z,76.80
2018-11-02T03:14:20.379Z,76.60
2018-11-02T03:16:52.399Z,76.40
2018-11-02T03:19:23.839Z,76.40
2018-11-02T03:21:56.012Z,76.20
2018-11-02T03:24:27.618Z,76.50
2018-11-02T03:26:59.499Z,76.70
2018-11-02T03:29:31.419Z,77.00
2018-11-02T03:32:03.810Z,77.40
2018-11-02T03:34:35.921Z,77.60
2018-11-02T03:37:07.599Z,77.90
2018-11-02T03:39:39.339Z,77.70
2018-11-02T03:42:11.719Z,78.00
2018-11-02T03:44:42.459Z,78.20
2018-11-02T03:47:15.340Z,78.20
2018-11-02T03:49:47.978Z,78.40
2018-11-02T03:52:19.624Z,78.60
2018-11-02T03:54:51.879Z,78.70
2018-11-02T03:57:23.701Z,78.90
2018-11-02T03:59:56.059Z,79.30
2018-11-02T04:02:27.339Z,79.30
2018-11-02T04:04:59.979Z,79.30
2018-11-02T04:07:32.778Z,79.30
2018-11-02T04:10:04.300Z,79.30
2018-11-02T04:12:36.338Z,79.20
2018-11-02T04:15:08.899Z,79.10
2018-11-02T04:17:40.699Z,80.30
2018-11-02T04:20:12.759Z,80.30
2018-11-02T04:22:44.339Z,79.90
2018-11-02T04:25:16.425Z,79.80
2018-11-02T04:27:48.299Z,79.60
2018-11-02T04:30:20.381Z,79.70
2018-11-02T04:32:52.525Z,79.50
2018-11-02T04:35:24.319Z,79.40
2018-11-02T04:37:55.958Z,79.20
2018-11-02T04:40:28.079Z,79.20
2018-11-02T04:43:00.819Z,79.30
2018-11-02T04:45:36.798Z,79.10
2018-11-02T04:48:10.705Z,79.00
2018-11-02T04:50:43.055Z,79.20
2018-11-02T04:53:15.839Z,79.20
2018-11-02T04:55:48.779Z,79.10
2018-11-02T04:58:19.739Z,79.30
2018-11-02T05:00:51.699Z,79.60
2018-11-02T05:03:23.739Z,80.20
2018-11-02T05:05:56.158Z,80.40
2018-11-02T05:08:27.980Z,80.20
2018-11-02T05:10:59.959Z,79.60
2018-11-02T05:13:31.279Z,79.80
2018-11-02T05:16:02.878Z,79.70
2018-11-02T05:18:34.559Z,80.30
2018-11-02T05:21:06.541Z,80.50
2018-11-02T05:23:38.559Z,80.70
2018-11-02T05:26:10.600Z,80.80
2018-11-02T05:28:42.379Z,80.70
2018-11-02T05:31:14.019Z,80.70
2018-11-02T05:33:45.739Z,80.70
2018-11-02T05:36:17.979Z,80.80
2018-11-02T05:38:49.941Z,81.40
2018-11-02T05:41:21.518Z,81.10
2018-11-02T05:43:53.999Z,81.40
2018-11-02T05:46:25.479Z,81.50
2018-11-02T05:48:57.579Z,81.40
2018-11-02T05:51:30.479Z,81.40
2018-11-02T05:54:02.652Z,81.50
2018-11-02T05:56:35.980Z,81.40
2018-11-02T05:59:07.484Z,81.20
2018-11-02T06:01:39.469Z,80.10
2018-11-02T06:04:10.911Z,79.50
2018-11-02T06:06:42.738Z,79.20
2018-11-02T06:09:14.639Z,79.20
2018-11-02T06:11:46.479Z,80.50
2018-11-02T06:14:19.056Z,80.70
2018-11-02T06:16:50.895Z,79.90
2018-11-02T06:19:23.699Z,80.10
2018-11-02T06:21:56.517Z,80.70
2018-11-02T06:24:28.288Z,80.80
2018-11-02T06:27:00.378Z,80.40
2018-11-02T06:29:31.998Z,80.30
2018-11-02T06:32:03.738Z,80.60
2018-11-02T06:34:35.219Z,80.70
2018-11-02T06:37:07.978Z,80.70
2018-11-02T06:39:39.986Z,80.80
2018-11-02T06:42:12.319Z,80.60
2018-11-02T06:44:43.926Z,80.80
2018-11-02T06:47:16.259Z,80.90
2018-11-02T06:49:48.498Z,81.20
2018-11-02T06:52:20.259Z,81.00
2018-11-02T06:54:52.158Z,81.00
2018-11-02T06:57:23.838Z,81.10
2018-11-02T06:59:56.247Z,81.20
2018-11-02T07:02:27.718Z,81.30
2018-11-02T07:04:59.839Z,81.40
2018-11-02T07:07:31.785Z,81.40
2018-11-02T07:10:02.599Z,81.00
2018-11-02T07:12:34.579Z,80.70
2018-11-02T07:15:07.039Z,79.80
2018-11-02T07:17:39.041Z,80.00
2018-11-02T07:20:11.439Z,79.70
2018-11-02T07:22:42.898Z,79.50
2018-11-02T07:25:15.345Z,79.40
2018-11-02T07:27:48.239Z,79.40
2018-11-02T07:30:20.238Z,79.00
2018-11-02T07:32:52.919Z,78.30
2018-11-02T07:35:25.366Z,78.40
2018-11-02T07:37:57.540Z,78.30
2018-11-02T07:40:29.859Z,77.70
2018-11-02T07:43:02.419Z,77.10
2018-11-02T07:45:33.584Z,77.10
2018-11-02T07:48:05.333Z,77.40
2018-11-02T07:50:37.309Z,77.40
2018-11-02T07:53:08.810Z,77.80
2018-11-02T07:55:40.518Z,78.30
2018-11-02T07:58:12.933Z,78.20
2018-11-02T08:00:44.710Z,77.80
2018-11-02T08:03:17.272Z,77.70
2018-11-02T08:05:48.309Z,77.80
2018-11-02T08:08:21.265Z,78.00
2018-11-02T08:10:52.925Z,78.00
2018-11-02T08:13:25.146Z,77.80
2018-11-02T08:15:58.408Z,77.70
2018-11-02T08:18:30.545Z,77.80
2018-11-02T08:21:01.780Z,78.00
2018-11-02T08:23:32.777Z,77.80
2018-11-02T08:26:05.219Z,78.40
2018-11-02T08:28:37.540Z,77.60
2018-11-02T08:31:09.321Z,78.10
2018-11-02T08:33:40.939Z,78.30
2018-11-02T08:36:13.279Z,78.70
2018-11-02T08:38:45.721Z,78.70
2018-11-02T08:41:17.341Z,78.40
2018-11-02T08:43:49.846Z,78.40
2018-11-02T08:46:21.932Z,78.30
2018-11-02T08:48:54.609Z,78.20
2018-11-02T08:51:26.428Z,78.00
2018-11-02T08:53:58.497Z,78.20
2018-11-02T08:56:31.209Z,77.70
2018-11-02T08:59:04.891Z,76.90
2018-11-02T09:01:36.650Z,76.80
2018-11-02T09:04:08.509Z,76.60
2018-11-02T09:06:40.331Z,76.50
2018-11-02T09:09:12.769Z,76.30
2018-11-02T09:11:44.608Z,75.80
2018-11-02T09:14:16.669Z,75.90
2018-11-02T09:16:47.891Z,75.90
2018-11-02T09:19:20.045Z,75.70
2018-11-02T09:21:51.530Z,75.70
2018-11-02T09:24:23.885Z,75.70
2018-11-02T09:26:55.231Z,75.50
2018-11-02T09:29:26.749Z,75.90
2018-11-02T09:31:59.189Z,75.10
2018-11-02T09:34:32.275Z,74.70
2018-11-02T09:37:05.001Z,74.10
2018-11-02T09:39:36.816Z,74.20
2018-11-02T09:42:08.924Z,73.60
2018-11-02T09:44:41.124Z,72.80
2018-11-02T09:47:13.101Z,72.60
2018-11-02T09:49:45.100Z,71.90
2018-11-02T09:52:17.260Z,71.60
2018-11-02T09:54:49.000Z,71.70
2018-11-02T09:57:20.831Z,71.30
2018-11-02T09:59:53.331Z,70.00
2018-11-02T10:02:25.091Z,69.10
2018-11-02T10:04:57.958Z,69.50
2018-11-02T10:07:29.595Z,69.40
2018-11-02T10:10:01.954Z,69.60
2018-11-02T10:12:34.455Z,69.50
2018-11-02T10:15:07.096Z,69.60
2018-11-02T10:17:39.076Z,69.80
2018-11-02T10:20:11.797Z,69.40
2018-11-02T10:22:45.298Z,70.10
2018-11-02T10:25:16.555Z,69.30
2018-11-02T10:27:50.536Z,68.40
2018-11-02T10:30:22.035Z,68.00
2018-11-02T10:32:55.962Z,67.30
2018-11-02T10:35:27.547Z,66.80
2018-11-02T10:38:01.115Z,65.90
2018-11-02T10:40:34.396Z,65.20
2018-11-02T10:43:08.635Z,65.30
2018-11-02T10:45:44.315Z,64.80
2018-11-02T10:48:16.095Z,64.40
2018-11-02T10:53:31.574Z,65.00
2018-11-02T10:56:03.174Z,65.50
2018-11-02T10:58:35.586Z,64.60
2018-11-02T11:01:11.224Z,64.60
2018-11-02T11:03:43.681Z,65.80
2018-11-02T11:06:15.694Z,65.80
2018-11-02T11:08:47.453Z,65.50
2018-11-02T11:11:19.914Z,64.80
2018-11-02T11:13:52.435Z,65.80
2018-11-02T11:16:23.857Z,65.40
2018-11-02T11:18:56.695Z,65.60
2018-11-02T11:21:28.354Z,65.60
2018-11-02T11:24:00.376Z,65.70
2018-11-02T11:26:32.034Z,65.80
2018-11-02T11:29:04.534Z,66.20
2018-11-02T11:31:36.434Z,65.80
2018-11-02T11:34:09.535Z,65.90
2018-11-02T11:36:42.035Z,66.40
2018-11-02T11:39:15.726Z,66.00
2018-11-02T11:41:47.281Z,66.40
2018-11-02T11:44:19.663Z,66.30
2018-11-02T11:46:52.302Z,66.30
2018-11-02T11:49:24.942Z,65.60
2018-11-02T11:51:57.338Z,66.40
2018-11-02T11:54:29.636Z,66.60
2018-11-02T11:57:01.158Z,66.70
2018-11-02T11:59:33.239Z,66.60
2018-11-02T12:02:04.998Z,66.60
2018-11-02T12:04:36.908Z,67.10
2018-11-02T12:07:08.629Z,67.60
2018-11-02T12:09:39.870Z,67.40
2018-11-02T12:12:11.710Z,67.20
2018-11-02T12:14:44.028Z,66.70
2018-11-02T12:17:15.499Z,67.00
2018-11-02T12:19:47.638Z,66.80
2018-11-02T12:22:19.159Z,67.30
2018-11-02T12:24:51.079Z,67.40
2018-11-02T12:27:22.737Z,67.60
2018-11-02T12:29:55.159Z,67.70
2018-11-02T12:32:26.928Z,67.90
2018-11-02T12:34:58.877Z,67.80
2018-11-02T12:37:30.718Z,67.70
2018-11-02T12:40:02.239Z,67.90
2018-11-02T12:42:34.057Z,67.60
2018-11-02T12:45:06.234Z,67.80
2018-11-02T12:47:38.147Z,68.20
2018-11-02T12:50:12.486Z,67.10
2018-11-02T12:52:45.240Z,67.20
2018-11-02T12:55:18.940Z,66.90
2018-11-02T12:57:50.936Z,67.20
2018-11-02T13:00:24.597Z,67.60
2018-11-02T13:02:57.706Z,67.90
2018-11-02T13:05:29.187Z,67.80
2018-11-02T13:07:59.147Z,68.10
2018-11-02T13:10:31.515Z,68.40
2018-11-02T13:13:03.177Z,68.40
2018-11-02T13:15:36.364Z,68.40
2018-11-02T13:18:07.615Z,68.60
2018-11-02T13:20:39.688Z,68.30
2018-11-02T13:23:11.126Z,68.10
2018-11-02T13:25:43.864Z,68.20
2018-11-02T13:28:15.436Z,68.40
2018-11-02T13:30:47.430Z,68.50
2018-11-02T13:33:18.886Z,69.10
2018-11-02T13:35:50.968Z,68.70
2018-11-02T13:38:23.006Z,68.40
2018-11-02T13:40:55.026Z,68.60
2018-11-02T13:43:27.648Z,68.60
2018-11-02T13:46:00.166Z,68.40
2018-11-02T13:48:32.146Z,68.30
2018-11-02T13:51:04.547Z,68.60
2018-11-02T13:53:34.608Z,69.00
2018-11-02T13:56:05.905Z,68.70
2018-11-02T13:58:37.764Z,68.60
2018-11-02T14:01:09.784Z,69.10
2018-11-02T14:03:42.406Z,69.10
2018-11-02T14:06:14.227Z,69.00
2018-11-02T14:08:47.086Z,69.30
2018-11-02T14:11:19.601Z,69.50
2018-11-02T14:13:51.687Z,69.80
2018-11-02T14:16:23.516Z,70.10
2018-11-02T14:18:55.736Z,70.10
2018-11-02T14:21:26.906Z,70.00
2018-11-02T14:23:59.664Z,70.20
2018-11-02T14:26:31.584Z,70.10
2018-11-02T14:29:04.004Z,70.40
2018-11-02T14:31:36.826Z,70.30
2018-11-02T14:34:09.649Z,70.50
2018-11-02T14:36:42.244Z,70.50
2018-11-02T14:39:15.145Z,70.40
2018-11-02T14:41:46.719Z,70.60
2018-11-02T14:44:18.938Z,70.80
2018-11-02T14:46:50.087Z,70.90
2018-11-02T14:49:22.943Z,70.90
2018-11-02T14:51:54.735Z,71.00
2018-11-02T14:54:27.285Z,71.20
2018-11-02T14:56:58.235Z,71.10
2018-11-02T14:59:29.449Z,71.40
2018-11-02T15:02:01.191Z,71.60
2018-11-02T15:04:32.702Z,71.30
2018-11-02T15:07:04.555Z,71.40
2018-11-02T15:09:36.916Z,71.50
2018-11-02T15:12:08.467Z,71.60
2018-11-02T15:14:41.026Z,71.80
2018-11-02T15:17:12.786Z,71.80
2018-11-02T15:19:44.886Z,71.90
2018-11-02T15:22:17.316Z,71.90
2018-11-02T15:24:50.075Z,71.60
2018-11-02T15:27:20.785Z,71.90
2018-11-02T15:29:52.911Z,71.80
2018-11-02T15:32:24.586Z,71.80
2018-11-02T15:34:55.203Z,72.20
2018-11-02T15:37:27.452Z,72.20
2018-11-02T15:39:59.084Z,72.60
2018-11-02T15:42:31.064Z,72.80
2018-11-02T15:45:03.304Z,73.10
2018-11-02T15:47:34.423Z,73.00
2018-11-02T15:50:06.043Z,73.30
2018-11-02T15:52:37.179Z,74.10
2018-11-02T15:55:09.578Z,73.40
2018-11-02T15:57:40.617Z,73.50
2018-11-02T16:00:16.823Z,73.90
2018-11-02T16:02:48.281Z,73.90
2018-11-02T16:05:20.444Z,73.80
2018-11-02T16:07:52.581Z,73.90
2018-11-02T16:10:25.021Z,74.00
2018-11-02T16:12:56.241Z,74.00
2018-11-02T16:15:28.942Z,74.00
2018-11-02T16:18:00.461Z,74.10
2018-11-02T16:20:32.918Z,74.30
2018-11-02T16:23:04.721Z,74.40
2018-11-02T16:25:36.940Z,74.50
2018-11-02T16:28:08.709Z,74.90
2018-11-02T16:30:40.061Z,74.80
2018-11-02T16:33:11.600Z,74.60
2018-11-02T16:35:42.958Z,75.00
2018-11-02T16:38:14.017Z,74.80
2018-11-02T16:40:44.000Z,74.60
2018-11-02T16:43:15.636Z,74.70
2018-11-02T16:45:47.740Z,74.80
2018-11-02T16:48:19.037Z,75.10
2018-11-02T16:50:51.176Z,75.10
2018-11-02T16:53:23.181Z,75.30
2018-11-02T16:55:55.598Z,75.50
2018-11-02T16:58:27.077Z,75.50
2018-11-02T17:00:59.537Z,75.70
2018-11-02T17:03:31.358Z,75.80
2018-11-02T17:06:03.243Z,75.50
2018-11-02T17:08:35.857Z,75.50
2018-11-02T17:11:07.877Z,75.90
2018-11-02T17:13:39.297Z,76.10
2018-11-02T17:16:11.297Z,76.40
2018-11-02T17:18:43.658Z,76.70
2018-11-02T17:21:15.797Z,77.00
2018-11-02T17:23:47.537Z,76.90
2018-11-02T17:26:19.198Z,77.00
2018-11-02T17:28:50.936Z,76.90
2018-11-02T17:31:22.877Z,76.90
2018-11-02T17:33:54.617Z,76.60
2018-11-02T17:36:26.338Z,76.90
2018-11-02T17:38:57.636Z,76.70
2018-11-02T17:41:29.857Z,77.10
2018-11-02T17:44:02.257Z,77.30
2018-11-02T17:46:34.097Z,77.40
2018-11-02T17:49:06.117Z,77.20
2018-11-02T17:51:38.436Z,77.50
2018-11-02T17:54:11.157Z,79.30
2018-11-02T17:56:42.896Z,77.90
2018-11-02T17:59:14.078Z,78.20
2018-11-02T18:01:46.117Z,78.50
2018-11-02T18:04:19.136Z,78.40
2018-11-02T18:06:53.278Z,78.50
2018-11-02T18:09:25.236Z,78.50
2018-11-02T18:11:58.274Z,78.60
2018-11-02T18:14:30.409Z,78.30
2018-11-02T18:17:02.570Z,78.00
2018-11-02T18:19:35.296Z,78.00
2018-11-02T18:22:08.183Z,78.10
2018-11-02T18:24:39.899Z,78.10
2018-11-02T18:27:11.956Z,78.10
2018-11-02T18:29:44.057Z,78.10
2018-11-02T18:32:17.363Z,78.40
2018-11-02T18:34:48.286Z,78.30
2018-11-02T18:37:20.845Z,78.40
2018-11-02T18:39:52.577Z,78.70
2018-11-02T18:42:24.318Z,78.60
2018-11-02T18:44:55.957Z,78.70
2018-11-02T18:47:33.835Z,78.80
2018-11-02T18:50:07.297Z,78.70
2018-11-02T18:52:39.817Z,78.90
2018-11-02T18:55:11.321Z,78.90
2018-11-02T18:57:42.934Z,78.90
2018-11-02T19:00:15.536Z,78.90
2018-11-02T19:02:47.876Z,79.00
2018-11-02T19:05:20.240Z,79.00
2018-11-02T19:07:51.756Z,79.30
2018-11-02T19:10:23.757Z,79.50
2018-11-02T19:12:55.457Z,79.80
2018-11-02T19:15:27.458Z,79.70
2018-11-02T19:17:59.219Z,79.70
2018-11-02T19:20:32.386Z,79.70
2018-11-02T19:23:04.376Z,79.70
2018-11-02T19:25:37.117Z,79.70
2018-11-02T19:28:08.717Z,79.80
2018-11-02T19:30:40.638Z,80.00
2018-11-02T19:33:12.377Z,79.90
2018-11-02T19:35:44.176Z,80.00
2018-11-02T19:38:16.727Z,79.90
2018-11-02T19:40:49.218Z,79.70
2018-11-02T19:43:21.176Z,79.50
2018-11-02T19:45:52.989Z,79.80
2018-11-02T19:48:25.357Z,80.00
2018-11-02T19:50:57.118Z,80.10
2018-11-02T19:53:28.658Z,80.10
2018-11-02T19:56:00.421Z,80.20
2018-11-02T19:58:32.817Z,80.30
2018-11-02T20:01:05.328Z,80.50
2018-11-02T20:03:36.857Z,80.60
2018-11-02T20:06:08.902Z,80.50
2018-11-02T20:08:41.477Z,80.50
2018-11-02T20:11:13.577Z,80.40
2018-11-02T20:13:44.736Z,80.90
2018-11-02T20:16:18.477Z,81.00
2018-11-02T20:18:50.299Z,81.20
2018-11-02T20:21:22.317Z,81.20
2018-11-02T20:23:53.997Z,81.20
2018-11-02T20:26:25.756Z,81.50
2018-11-02T20:28:56.997Z,81.60
2018-11-02T20:31:28.856Z,81.60
2018-11-02T20:34:00.617Z,81.70
2018-11-02T20:36:32.456Z,81.60
2018-11-02T20:39:04.443Z,81.40
2018-11-02T20:41:36.477Z,81.30
2018-11-02T20:44:08.816Z,81.30
2018-11-02T20:46:40.236Z,81.30
2018-11-02T20:49:12.017Z,81.40
2018-11-02T20:51:44.156Z,81.60
2018-11-02T20:54:16.117Z,81.40
2018-11-02T20:56:47.517Z,81.20
2018-11-02T20:59:19.737Z,81.30
2018-11-02T21:01:51.296Z,81.10
2018-11-02T21:04:23.196Z,81.00
2018-11-02T21:06:55.417Z,80.90
2018-11-02T21:09:27.347Z,81.10
2018-11-02T21:11:59.618Z,81.10
2018-11-02T21:14:31.639Z,81.00
2018-11-02T21:17:03.799Z,80.60
2018-11-02T21:19:35.978Z,81.50
2018-11-02T21:22:08.493Z,80.50
2018-11-02T21:24:40.636Z,80.50
2018-11-02T21:27:12.216Z,80.40
2018-11-02T21:29:43.557Z,80.50
2018-11-02T21:32:16.036Z,80.40
2018-11-02T21:34:46.996Z,80.10
2018-11-02T21:37:20.036Z,80.20
2018-11-02T21:39:51.556Z,80.00
2018-11-02T21:42:23.396Z,80.20
2018-11-02T21:44:55.097Z,80.40
2018-11-02T21:47:27.476Z,80.50
2018-11-02T21:49:58.136Z,80.20
2018-11-02T21:52:30.171Z,80.30
2018-11-02T21:55:01.926Z,80.50
2018-11-02T21:57:33.976Z,80.30
2018-11-02T22:00:05.796Z,80.40
2018-11-02T22:02:38.923Z,80.50
2018-11-02T22:05:12.376Z,80.10
2018-11-02T22:07:45.895Z,80.00
2018-11-02T22:10:18.257Z,79.80
2018-11-02T22:12:51.675Z,79.70
2018-11-02T22:15:23.136Z,80.00
2018-11-02T22:17:56.137Z,80.40
2018-11-02T22:20:27.995Z,80.10
2018-11-02T22:23:00.337Z,80.20
2018-11-02T22:25:32.775Z,80.20
2018-11-02T22:28:04.698Z,80.00
2018-11-02T22:30:36.778Z,79.90
2018-11-02T22:33:09.736Z,79.80
2018-11-02T22:35:41.596Z,79.90
2018-11-02T22:38:14.056Z,79.80
2018-11-02T22:40:45.316Z,79.70
2018-11-02T22:43:18.099Z,79.40
2018-11-02T22:45:49.596Z,79.20
2018-11-02T22:48:25.557Z,79.40
2018-11-02T22:50:58.537Z,79.40
2018-11-02T22:53:30.716Z,79.30
2018-11-02T22:56:03.356Z,79.40
2018-11-02T22:58:35.916Z,79.70
2018-11-02T23:01:12.857Z,79.90
2018-11-02T23:03:45.016Z,80.30
2018-11-02T23:06:17.616Z,80.60
2018-11-02T23:08:49.735Z,80.70
2018-11-02T23:11:21.116Z,80.80
2018-11-02T23:13:52.759Z,81.00
2018-11-02T23:16:24.796Z,81.00
2018-11-02T23:18:56.896Z,81.00
2018-11-02T23:21:27.156Z,81.10
2018-11-02T23:23:58.516Z,81.30
2018-11-02T23:26:30.537Z,81.20
2018-11-02T23:29:01.761Z,81.10
2018-11-02T23:31:34.136Z,80.90
2018-11-02T23:34:05.915Z,80.70
2018-11-02T23:36:37.976Z,80.50
2018-11-02T23:39:10.176Z,80.20
2018-11-02T23:41:42.555Z,80.10
2018-11-02T23:44:14.455Z,80.00
2018-11-02T23:46:45.789Z,80.00
2018-11-02T23:49:17.330Z,80.40
2018-11-02T23:51:48.608Z,80.20
2018-11-02T23:54:19.989Z,80.40
2018-11-02T23:56:51.549Z,80.60
2018-11-02T23:59:23.349Z,80.70
